createdAt,value
2018-03-27T00:00:37.860Z,15.65
2018-03-27T00:03:05.093Z,12.85
2018-03-27T00:05:35.938Z,14.77
2018-03-27T00:08:03.505Z,14.75
2018-03-27T00:10:38.031Z,13.45
2018-03-27T00:13:09.140Z,14.13
2018-03-27T00:15:35.960Z,14.27
2018-03-27T00:18:02.651Z,14.87
2018-03-27T00:20:31.629Z,14.48
2018-03-27T00:23:02.752Z,14.10
2018-03-27T00:25:30.898Z,14.40
2018-03-27T00:28:04.963Z,12.88
2018-03-27T00:30:37.956Z,13.05
2018-03-27T00:33:12.224Z,13.40
2018-03-27T00:35:44.988Z,15.02
2018-03-27T00:38:17.696Z,13.35
2018-03-27T00:40:47.886Z,14.87
2018-03-27T00:43:14.642Z,14.07
2018-03-27T00:45:45.290Z,13.25
2018-03-27T00:48:11.919Z,13.80
2018-03-27T00:50:39.484Z,13.88
2018-03-27T00:53:07.034Z,14.15
2018-03-27T00:55:35.131Z,13.95
2018-03-27T00:58:02.154Z,14.23
2018-03-27T01:00:28.825Z,14.15
2018-03-27T01:03:11.860Z,14.98
2018-03-27T01:05:40.915Z,14.95
2018-03-27T01:08:08.368Z,14.98
2018-03-27T01:10:35.025Z,15.65
2018-03-27T01:13:02.527Z,15.30
2018-03-27T01:15:29.212Z,16.12
2018-03-27T01:17:56.483Z,13.82
2018-03-27T01:20:23.392Z,14.85
2018-03-27T01:22:50.139Z,15.80
2018-03-27T01:25:16.944Z,15.30
2018-03-27T01:27:49.851Z,15.75
2018-03-27T01:30:16.498Z,16.87
2018-03-27T01:32:44.082Z,16.05
2018-03-27T01:35:11.607Z,16.80
2018-03-27T01:37:38.424Z,16.77
2018-03-27T01:40:08.991Z,17.33
2018-03-27T01:42:39.791Z,18.12
2018-03-27T01:45:10.389Z,18.83
2018-03-27T01:47:41.531Z,18.08
2018-03-27T01:50:09.149Z,17.77
2018-03-27T01:52:35.894Z,17.73
2018-03-27T01:55:02.572Z,17.67
2018-03-27T01:57:29.344Z,18.15
2018-03-27T02:00:02.457Z,16.55
2018-03-27T02:02:33.092Z,17.52
2018-03-27T02:05:07.764Z,16.77
2018-03-27T02:07:35.264Z,15.88
2018-03-27T02:10:01.928Z,17.20
2018-03-27T02:12:34.428Z,16.60
2018-03-27T02:15:09.458Z,17.83
2018-03-27T02:17:42.877Z,16.70
2018-03-27T02:20:19.422Z,16.05
2018-03-27T02:23:02.168Z,17.48
2018-03-27T02:25:32.582Z,16.83
2018-03-27T02:28:03.207Z,17.77
2018-03-27T02:30:30.042Z,16.90
2018-03-27T02:32:56.734Z,17.35
2018-03-27T02:35:23.436Z,18.27
2018-03-27T02:37:54.006Z,17.52
2018-03-27T02:40:26.676Z,16.70
2018-03-27T02:42:54.232Z,17.87
2018-03-27T02:45:24.753Z,17.58
2018-03-27T02:47:51.379Z,19.17
2018-03-27T02:50:18.716Z,17.02
2018-03-27T02:52:51.774Z,17.02
2018-03-27T02:55:19.032Z,19.55
2018-03-27T02:57:45.722Z,18.12
2018-03-27T03:00:16.786Z,19.73
2018-03-27T03:02:47.780Z,16.10
2018-03-27T03:05:14.993Z,18.10
2018-03-27T03:07:43.355Z,18.42
2018-03-27T03:10:10.198Z,18.08
2018-03-27T03:12:38.109Z,19.70
2018-03-27T03:15:04.870Z,17.65
2018-03-27T03:17:43.651Z,17.95
2018-03-27T03:20:16.264Z,19.83
2018-03-27T03:22:49.256Z,18.80
2018-03-27T03:25:16.607Z,18.35
2018-03-27T03:27:43.991Z,17.33
2018-03-27T03:30:15.467Z,19.05
2018-03-27T03:32:48.000Z,18.05
2018-03-27T03:35:18.773Z,17.80
2018-03-27T03:37:49.301Z,19.05
2018-03-27T03:40:22.476Z,19.60
2018-03-27T03:42:49.154Z,19.70
2018-03-27T03:45:16.533Z,19.95
2018-03-27T03:47:44.703Z,18.60
2018-03-27T03:50:17.551Z,18.23
2018-03-27T03:52:44.271Z,18.02
2018-03-27T03:55:10.920Z,18.00
2018-03-27T03:57:37.610Z,18.80
2018-03-27T04:00:07.971Z,18.37
2018-03-27T04:02:38.651Z,18.70
2018-03-27T04:05:06.246Z,17.73
2018-03-27T04:07:32.949Z,18.23
2018-03-27T04:09:59.768Z,18.25
2018-03-27T04:12:26.451Z,15.82
2018-03-27T04:14:53.237Z,18.50
2018-03-27T04:17:20.868Z,17.08
2018-03-27T04:19:48.206Z,17.92
2018-03-27T04:22:14.856Z,17.27
2018-03-27T04:24:41.525Z,17.65
2018-03-27T04:27:08.328Z,18.20
2018-03-27T04:29:36.504Z,18.20
2018-03-27T04:32:03.323Z,18.40
2018-03-27T04:34:30.107Z,15.82
2018-03-27T04:36:57.550Z,17.77
2018-03-27T04:39:24.264Z,16.62
2018-03-27T04:41:51.724Z,15.57
2018-03-27T04:44:18.398Z,18.98
2018-03-27T04:46:45.121Z,18.30
2018-03-27T04:49:11.796Z,17.58
2018-03-27T04:51:38.464Z,15.30
2018-03-27T04:54:05.217Z,17.08
2018-03-27T04:56:31.867Z,17.80
2018-03-27T04:58:58.600Z,17.40
2018-03-27T05:01:26.022Z,17.50
2018-03-27T05:03:53.608Z,15.88
2018-03-27T05:06:21.129Z,15.80
2018-03-27T05:08:47.825Z,16.73
2018-03-27T05:11:18.449Z,18.90
2018-03-27T05:13:45.101Z,17.55
2018-03-27T05:16:11.832Z,17.77
2018-03-27T05:18:38.587Z,17.37
2018-03-27T05:21:05.664Z,17.52
2018-03-27T05:23:33.201Z,18.80
2018-03-27T05:25:59.832Z,19.98
2018-03-27T05:28:26.460Z,18.90
2018-03-27T05:30:53.254Z,17.40
2018-03-27T05:33:20.427Z,18.45
2018-03-27T05:35:47.069Z,18.52
2018-03-27T05:38:13.914Z,18.62
2018-03-27T05:40:41.244Z,17.42
2018-03-27T05:43:07.945Z,18.42
2018-03-27T05:45:34.682Z,18.95
2018-03-27T05:48:01.346Z,20.20
2018-03-27T05:50:27.981Z,19.67
2018-03-27T05:52:54.653Z,18.77
2018-03-27T05:55:21.276Z,17.30
2018-03-27T05:57:47.938Z,17.92
2018-03-27T06:00:18.423Z,18.27
2018-03-27T06:02:45.099Z,18.75
2018-03-27T06:05:11.740Z,19.95
2018-03-27T06:07:38.440Z,17.75
2018-03-27T06:10:05.128Z,19.37
2018-03-27T06:12:31.808Z,17.75
2018-03-27T06:15:02.355Z,18.65
2018-03-27T06:17:29.022Z,16.27
2018-03-27T06:19:55.679Z,16.95
2018-03-27T06:22:22.435Z,17.87
2018-03-27T06:24:49.080Z,17.83
2018-03-27T06:27:15.744Z,16.83
2018-03-27T06:29:42.411Z,17.50
2018-03-27T06:32:09.047Z,18.60
2018-03-27T06:34:35.705Z,17.98
2018-03-27T06:37:02.479Z,18.52
2018-03-27T06:39:29.305Z,19.85
2018-03-27T06:41:56.123Z,19.12
2018-03-27T06:44:23.096Z,19.75
2018-03-27T06:46:50.442Z,20.27
2018-03-27T06:49:17.220Z,20.55
2018-03-27T06:51:44.940Z,22.35
2018-03-27T06:54:11.760Z,23.10
2018-03-27T06:56:38.591Z,23.77
2018-03-27T06:59:05.562Z,23.12
2018-03-27T07:01:33.215Z,23.85
2018-03-27T07:03:59.951Z,26.08
2018-03-27T07:06:26.789Z,27.65
2018-03-27T07:08:53.754Z,26.35
2018-03-27T07:11:21.101Z,28.58
2018-03-27T07:13:48.423Z,28.60
2018-03-27T07:16:15.260Z,30.02
2018-03-27T07:18:42.164Z,29.98
2018-03-27T07:21:09.281Z,32.00
2018-03-27T07:23:37.000Z,32.15
2018-03-27T07:26:03.975Z,32.28
2018-03-27T07:28:30.881Z,31.30
2018-03-27T07:30:57.685Z,34.67
2018-03-27T07:33:24.429Z,40.72
2018-03-27T07:35:51.757Z,45.12
2018-03-27T07:38:18.748Z,44.70
2018-03-27T07:40:45.647Z,43.53
2018-03-27T07:43:12.591Z,49.63
2018-03-27T07:45:39.344Z,48.30
2018-03-27T07:48:06.504Z,50.38
2018-03-27T07:50:33.449Z,55.88
2018-03-27T07:53:00.287Z,53.78
2018-03-27T07:55:27.861Z,52.28
2018-03-27T07:57:54.752Z,52.80
2018-03-27T08:00:21.481Z,53.25
2018-03-27T08:02:48.305Z,52.42
2018-03-27T08:05:15.106Z,53.40
2018-03-27T08:07:41.939Z,55.35
2018-03-27T08:10:12.822Z,52.30
2018-03-27T08:12:39.724Z,53.53
2018-03-27T08:15:06.493Z,52.20
2018-03-27T08:17:33.290Z,52.50
2018-03-27T08:20:00.135Z,49.72
2018-03-27T08:22:26.820Z,48.17
2018-03-27T08:24:53.606Z,50.88
2018-03-27T08:27:20.570Z,47.42
2018-03-27T08:29:47.385Z,48.08
2018-03-27T08:32:15.199Z,42.33
2018-03-27T08:34:46.086Z,43.78
2018-03-27T08:37:13.002Z,43.22
2018-03-27T08:39:39.882Z,44.92
2018-03-27T08:42:06.626Z,47.17
2018-03-27T08:44:33.634Z,43.15
2018-03-27T08:47:00.541Z,46.92
2018-03-27T08:49:27.258Z,42.35
2018-03-27T08:51:54.025Z,41.50
2018-03-27T08:54:20.776Z,39.72
2018-03-27T08:56:47.553Z,44.40
2018-03-27T08:59:14.352Z,44.97
2018-03-27T09:01:41.042Z,41.22
2018-03-27T09:04:07.808Z,45.50
2018-03-27T09:06:34.573Z,43.53
2018-03-27T09:09:01.382Z,43.17
2018-03-27T09:11:28.168Z,43.47
2018-03-27T09:13:54.978Z,47.38
2018-03-27T09:16:21.857Z,47.38
2018-03-27T09:18:48.608Z,43.95
2018-03-27T09:21:15.415Z,45.90
2018-03-27T09:23:42.295Z,47.08
2018-03-27T09:26:09.177Z,45.12
2018-03-27T09:28:36.218Z,46.75
2018-03-27T09:31:03.402Z,49.53
2018-03-27T09:33:30.191Z,44.35
2018-03-27T09:35:56.922Z,42.40
2018-03-27T09:38:23.799Z,41.15
2018-03-27T09:40:50.677Z,41.40
2018-03-27T09:43:17.508Z,43.45
2018-03-27T09:45:44.219Z,42.25
2018-03-27T09:48:10.956Z,43.55
2018-03-27T09:50:37.642Z,41.42
2018-03-27T09:53:04.537Z,38.95
2018-03-27T09:55:31.313Z,38.35
2018-03-27T09:57:58.121Z,40.67
2018-03-27T10:00:31.426Z,36.83
2018-03-27T10:02:58.501Z,37.42
2018-03-27T10:05:25.233Z,41.75
2018-03-27T10:07:52.190Z,42.33
2018-03-27T10:10:19.282Z,40.80
2018-03-27T10:12:50.523Z,35.67
2018-03-27T10:15:17.382Z,36.58
2018-03-27T10:17:45.256Z,30.20
2018-03-27T10:20:13.071Z,31.87
2018-03-27T10:22:41.969Z,35.17
2018-03-27T10:25:08.894Z,31.95
2018-03-27T10:27:35.836Z,32.78
2018-03-27T10:30:02.603Z,28.98
2018-03-27T10:32:29.488Z,27.98
2018-03-27T10:34:56.978Z,32.97
2018-03-27T10:37:23.887Z,31.58
2018-03-27T10:39:50.782Z,34.03
2018-03-27T10:42:17.763Z,33.10
2018-03-27T10:44:44.884Z,30.50
2018-03-27T10:47:11.793Z,28.40
2018-03-27T10:49:39.244Z,28.90
2018-03-27T10:52:10.123Z,29.90
2018-03-27T10:54:37.660Z,29.58
2018-03-27T10:57:04.840Z,25.42
2018-03-27T10:59:31.770Z,22.60
2018-03-27T11:01:59.012Z,22.08
2018-03-27T11:04:26.723Z,24.83
2018-03-27T11:06:53.929Z,22.50
2018-03-27T11:09:23.424Z,22.73
2018-03-27T11:11:54.477Z,21.83
2018-03-27T11:14:22.130Z,21.52
2018-03-27T11:16:48.956Z,19.15
2018-03-27T11:19:19.958Z,18.60
2018-03-27T11:21:47.397Z,18.77
2018-03-27T11:24:14.334Z,17.98
2018-03-27T11:26:45.467Z,19.50
2018-03-27T11:29:12.468Z,21.90
2018-03-27T11:31:40.315Z,25.30
2018-03-27T11:34:07.220Z,24.80
2018-03-27T11:36:34.162Z,18.52
2018-03-27T11:39:01.196Z,21.08
2018-03-27T11:41:28.124Z,20.95
2018-03-27T11:43:55.004Z,22.17
2018-03-27T11:46:22.647Z,22.13
2018-03-27T11:48:50.291Z,20.23
2018-03-27T11:51:17.382Z,20.27
2018-03-27T11:53:45.342Z,18.02
2018-03-27T11:56:12.300Z,15.57
2018-03-27T11:58:44.646Z,18.40
2018-03-27T12:01:12.202Z,20.83
2018-03-27T12:03:40.014Z,20.77
2018-03-27T12:06:13.423Z,24.25
2018-03-27T12:08:41.642Z,19.08
2018-03-27T12:11:08.604Z,17.20
2018-03-27T12:13:39.584Z,22.70
2018-03-27T12:16:06.641Z,23.40
2018-03-27T12:18:36.362Z,17.10
2018-03-27T12:21:05.249Z,14.93
2018-03-27T12:23:36.649Z,17.65
2018-03-27T12:26:03.472Z,14.25
2018-03-27T12:28:30.415Z,16.55
2018-03-27T12:30:57.669Z,16.58
2018-03-27T12:33:24.563Z,22.35
2018-03-27T12:35:51.308Z,25.35
2018-03-27T12:38:18.550Z,19.98
2018-03-27T12:40:45.448Z,19.35
2018-03-27T12:43:13.153Z,17.98
2018-03-27T12:45:39.932Z,20.65
2018-03-27T12:48:06.703Z,19.10
2018-03-27T12:50:33.531Z,18.83
2018-03-27T12:53:00.251Z,17.50
2018-03-27T12:55:27.273Z,15.95
2018-03-27T12:57:54.081Z,15.93
2018-03-27T13:00:20.905Z,17.02
2018-03-27T13:02:47.735Z,14.80
2018-03-27T13:05:14.487Z,14.25
2018-03-27T13:07:41.368Z,14.00
2018-03-27T13:10:08.548Z,13.75
2018-03-27T13:12:35.580Z,14.25
2018-03-27T13:15:02.294Z,13.80
2018-03-27T13:17:29.223Z,14.73
2018-03-27T13:19:57.728Z,14.50
2018-03-27T13:22:25.002Z,16.00
2018-03-27T13:24:51.781Z,16.60
2018-03-27T13:27:18.768Z,15.07
2018-03-27T13:29:45.729Z,16.85
2018-03-27T13:32:12.489Z,17.50
2018-03-27T13:34:39.318Z,16.12
2018-03-27T13:37:06.085Z,15.75
2018-03-27T13:39:32.928Z,16.60
2018-03-27T13:42:00.333Z,14.32
2018-03-27T13:44:27.178Z,14.63
2018-03-27T13:46:54.313Z,14.50
2018-03-27T13:49:21.271Z,12.77
2018-03-27T13:51:48.165Z,13.02
2018-03-27T13:54:14.991Z,13.82
2018-03-27T13:56:41.763Z,12.37
2018-03-27T13:59:08.508Z,13.93
2018-03-27T14:01:35.277Z,13.93
2018-03-27T14:04:02.219Z,13.90
2018-03-27T14:06:29.113Z,14.15
2018-03-27T14:08:55.947Z,16.27
2018-03-27T14:11:22.868Z,14.48
2018-03-27T14:13:54.699Z,14.63
2018-03-27T14:16:21.769Z,15.77
2018-03-27T14:18:48.517Z,14.43
2018-03-27T14:21:15.313Z,16.08
2018-03-27T14:23:42.231Z,15.05
2018-03-27T14:26:08.963Z,14.95
2018-03-27T14:28:35.677Z,15.73
2018-03-27T14:31:02.420Z,14.95
2018-03-27T14:33:29.198Z,14.40
2018-03-27T14:35:56.185Z,15.10
2018-03-27T14:38:23.069Z,15.57
2018-03-27T14:40:49.789Z,15.68
2018-03-27T14:43:16.728Z,14.20
2018-03-27T14:45:43.480Z,14.32
2018-03-27T14:48:10.234Z,15.00
2018-03-27T14:50:36.959Z,14.90
2018-03-27T14:53:04.143Z,14.93
2018-03-27T14:55:31.182Z,14.98
2018-03-27T14:57:57.952Z,16.80
2018-03-27T15:00:24.828Z,14.57
2018-03-27T15:02:51.541Z,14.38
2018-03-27T15:05:18.450Z,16.30
2018-03-27T15:07:45.145Z,15.73
2018-03-27T15:10:12.255Z,16.15
2018-03-27T15:12:38.973Z,15.40
2018-03-27T15:15:05.915Z,14.73
2018-03-27T15:17:32.871Z,15.48
2018-03-27T15:19:59.663Z,16.20
2018-03-27T15:22:27.144Z,15.00
2018-03-27T15:24:53.932Z,13.02
2018-03-27T15:27:20.841Z,13.98
2018-03-27T15:29:47.772Z,15.98
2018-03-27T15:32:14.526Z,15.75
2018-03-27T15:34:41.339Z,14.32
2018-03-27T15:37:08.415Z,13.25
2018-03-27T15:39:35.198Z,12.77
2018-03-27T15:42:01.910Z,15.02
2018-03-27T15:44:28.644Z,14.60
2018-03-27T15:46:55.421Z,12.70
2018-03-27T15:49:22.201Z,14.07
2018-03-27T15:51:48.993Z,14.32
2018-03-27T15:54:15.806Z,13.20
2018-03-27T15:56:42.813Z,13.35
2018-03-27T15:59:10.230Z,13.10
2018-03-27T16:01:37.074Z,13.30
2018-03-27T16:04:03.931Z,13.50
2018-03-27T16:06:31.062Z,13.75
2018-03-27T16:08:57.952Z,12.37
2018-03-27T16:11:25.276Z,12.52
2018-03-27T16:13:52.246Z,13.15
2018-03-27T16:16:19.096Z,11.18
2018-03-27T16:18:45.865Z,10.43
2018-03-27T16:21:13.184Z,11.23
2018-03-27T16:23:40.142Z,11.05
2018-03-27T16:26:07.066Z,11.77
2018-03-27T16:28:34.689Z,11.75
2018-03-27T16:31:01.496Z,13.18
2018-03-27T16:33:28.388Z,11.57
2018-03-27T16:35:55.164Z,12.40
2018-03-27T16:38:21.996Z,15.25
2018-03-27T16:40:48.782Z,13.52
2018-03-27T16:43:15.554Z,13.50
2018-03-27T16:45:42.382Z,13.25
2018-03-27T16:48:09.283Z,12.35
2018-03-27T16:50:36.235Z,13.88
2018-03-27T16:53:03.633Z,14.20
2018-03-27T16:55:30.567Z,14.93
2018-03-27T16:57:57.386Z,16.55
2018-03-27T17:00:24.128Z,14.50
2018-03-27T17:02:50.873Z,15.77
2018-03-27T17:05:17.760Z,16.30
2018-03-27T17:07:44.622Z,16.77
2018-03-27T17:10:11.987Z,15.32
2018-03-27T17:12:38.864Z,15.00
2018-03-27T17:15:05.759Z,15.20
2018-03-27T17:17:38.084Z,15.57
2018-03-27T17:20:10.829Z,16.48
2018-03-27T17:22:38.777Z,16.10
2018-03-27T17:25:09.742Z,15.57
2018-03-27T17:27:36.457Z,16.75
2018-03-27T17:30:07.146Z,14.70
2018-03-27T17:32:33.847Z,15.63
2018-03-27T17:35:00.581Z,15.57
2018-03-27T17:37:32.676Z,15.43
2018-03-27T17:39:59.470Z,16.48
2018-03-27T17:42:27.215Z,15.88
2018-03-27T17:44:54.036Z,16.67
2018-03-27T17:47:21.129Z,15.60
2018-03-27T17:49:52.494Z,15.95
2018-03-27T17:52:19.525Z,18.87
2018-03-27T17:54:49.762Z,18.20
2018-03-27T17:57:17.913Z,18.02
2018-03-27T17:59:45.002Z,18.73
2018-03-27T18:02:11.855Z,19.12
2018-03-27T18:04:39.784Z,18.90
2018-03-27T18:07:06.799Z,18.25
2018-03-27T18:09:33.588Z,18.08
2018-03-27T18:12:00.956Z,17.50
2018-03-27T18:14:28.003Z,18.45
2018-03-27T18:16:54.910Z,17.37
2018-03-27T18:19:25.693Z,18.85
2018-03-27T18:21:52.682Z,19.42
2018-03-27T18:24:19.573Z,18.87
2018-03-27T18:26:50.914Z,17.27
2018-03-27T18:29:17.757Z,17.90
2018-03-27T18:31:44.591Z,17.83
2018-03-27T18:34:11.498Z,20.48
2018-03-27T18:36:39.294Z,19.45
2018-03-27T18:39:07.565Z,20.75
2018-03-27T18:41:35.001Z,22.23
2018-03-27T18:44:02.689Z,21.08
2018-03-27T18:46:29.675Z,20.37
2018-03-27T18:48:56.828Z,20.08
2018-03-27T18:51:25.183Z,21.15
2018-03-27T18:53:52.824Z,23.60
2018-03-27T18:56:19.628Z,21.87
2018-03-27T18:58:46.647Z,21.90
2018-03-27T19:01:13.783Z,22.77
2018-03-27T19:03:41.448Z,20.50
2018-03-27T19:06:08.663Z,22.73
2018-03-27T19:08:35.749Z,22.92
2018-03-27T19:11:03.420Z,22.00
2018-03-27T19:13:31.197Z,23.75
2018-03-27T19:15:58.219Z,23.50
2018-03-27T19:18:25.501Z,22.50
2018-03-27T19:20:52.671Z,23.50
2018-03-27T19:23:19.876Z,21.10
2018-03-27T19:25:46.995Z,23.92
2018-03-27T19:28:13.956Z,24.33
2018-03-27T19:30:40.760Z,23.15
2018-03-27T19:33:07.480Z,22.40
2018-03-27T19:35:34.271Z,21.55
2018-03-27T19:38:01.027Z,24.00
2018-03-27T19:40:29.064Z,23.23
2018-03-27T19:42:56.765Z,24.80
2018-03-27T19:45:24.523Z,24.95
2018-03-27T19:47:51.287Z,24.52
2018-03-27T19:50:17.973Z,24.10
2018-03-27T19:52:44.907Z,25.55
2018-03-27T19:55:12.280Z,23.98
2018-03-27T19:57:39.274Z,24.90
2018-03-27T20:00:06.666Z,25.25
2018-03-27T20:02:33.520Z,25.17
2018-03-27T20:05:07.019Z,25.33
2018-03-27T20:07:34.266Z,25.88
2018-03-27T20:10:05.093Z,26.70
2018-03-27T20:12:31.752Z,25.90
2018-03-27T20:14:58.461Z,26.45
2018-03-27T20:17:25.087Z,27.62
2018-03-27T20:19:52.702Z,25.58
2018-03-27T20:22:20.187Z,26.48
2018-03-27T20:24:46.821Z,24.55
2018-03-27T20:27:17.598Z,27.73
2018-03-27T20:29:48.877Z,24.40
2018-03-27T20:32:19.410Z,23.50
2018-03-27T20:34:46.060Z,24.10
2018-03-27T20:37:12.733Z,24.00
2018-03-27T20:39:40.202Z,22.25
2018-03-27T20:42:06.901Z,21.27
2018-03-27T20:44:33.621Z,22.02
2018-03-27T20:47:00.409Z,20.40
2018-03-27T20:49:27.100Z,21.10
2018-03-27T20:51:53.831Z,21.33
2018-03-27T20:54:20.564Z,21.33
2018-03-27T20:56:47.276Z,19.50
2018-03-27T20:59:14.025Z,18.42
2018-03-27T21:01:40.677Z,19.27
2018-03-27T21:04:07.360Z,20.15
2018-03-27T21:06:34.143Z,19.15
2018-03-27T21:09:00.836Z,18.92
2018-03-27T21:11:27.538Z,18.55
2018-03-27T21:13:54.413Z,16.27
2018-03-27T21:16:21.168Z,14.65
2018-03-27T21:18:47.949Z,14.38
2018-03-27T21:21:14.746Z,13.73
2018-03-27T21:23:41.409Z,12.65
2018-03-27T21:26:09.110Z,11.10
2018-03-27T21:28:36.546Z,10.65
2018-03-27T21:31:03.198Z,10.85
2018-03-27T21:33:34.356Z,10.57
2018-03-27T21:36:01.171Z,12.45
2018-03-27T21:38:27.866Z,11.60
2018-03-27T21:40:55.233Z,13.32
2018-03-27T21:43:21.906Z,12.55
2018-03-27T21:45:49.072Z,12.55
2018-03-27T21:48:15.756Z,14.93
2018-03-27T21:50:42.465Z,12.20
2018-03-27T21:53:09.177Z,14.00
2018-03-27T21:55:35.797Z,13.82
2018-03-27T21:58:02.475Z,13.38
2018-03-27T22:00:29.824Z,13.32
2018-03-27T22:02:57.549Z,13.93
2018-03-27T22:05:25.742Z,13.07
2018-03-27T22:07:52.476Z,13.32
2018-03-27T22:10:19.145Z,13.43
2018-03-27T22:12:45.931Z,12.32
2018-03-27T22:15:12.723Z,10.88
2018-03-27T22:17:40.271Z,11.20
2018-03-27T22:20:08.115Z,11.07
2018-03-27T22:22:34.859Z,10.95
2018-03-27T22:25:05.807Z,9.77
2018-03-27T22:27:32.433Z,10.40
2018-03-27T22:30:03.152Z,10.07
2018-03-27T22:32:29.860Z,9.63
2018-03-27T22:34:56.615Z,9.55
2018-03-27T22:37:23.330Z,9.40
2018-03-27T22:39:49.992Z,9.45
2018-03-27T22:42:16.716Z,10.20
2018-03-27T22:44:43.537Z,9.10
2018-03-27T22:47:10.172Z,9.25
2018-03-27T22:49:36.820Z,9.48
2018-03-27T22:52:03.869Z,7.80
2018-03-27T22:54:34.557Z,7.90
2018-03-27T22:57:01.214Z,8.43
2018-03-27T22:59:28.368Z,8.48
2018-03-27T23:01:55.705Z,8.52
2018-03-27T23:04:22.447Z,9.30
2018-03-27T23:06:50.019Z,8.02
2018-03-27T23:09:16.770Z,8.05
2018-03-27T23:11:44.356Z,9.35
2018-03-27T23:14:10.985Z,7.50
2018-03-27T23:16:37.627Z,7.97
2018-03-27T23:19:05.043Z,7.18
2018-03-27T23:21:32.033Z,8.98
2018-03-27T23:24:02.509Z,9.73
2018-03-27T23:26:29.233Z,7.97
2018-03-27T23:28:56.459Z,8.77
2018-03-27T23:31:26.940Z,8.35
2018-03-27T23:33:54.040Z,8.50
2018-03-27T23:36:21.207Z,8.82
2018-03-27T23:38:48.080Z,7.45
2018-03-27T23:41:15.407Z,8.13
2018-03-27T23:43:42.074Z,8.30
2018-03-27T23:46:08.714Z,8.00
2018-03-27T23:48:35.567Z,8.88
2018-03-27T23:51:03.127Z,7.82
2018-03-27T23:53:29.775Z,9.00
2018-03-27T23:55:57.762Z,7.80
2018-03-27T23:58:28.831Z,8.75
